createdAt,value
2018-03-11T00:01:54.948Z,99.90
2018-03-11T00:04:23.236Z,99.90
2018-03-11T00:06:51.564Z,99.90
2018-03-11T00:09:19.854Z,99.90
2018-03-11T00:11:48.152Z,99.90
2018-03-11T00:14:17.220Z,99.90
2018-03-11T00:16:45.538Z,99.90
2018-03-11T00:19:14.624Z,99.90
2018-03-11T00:21:42.950Z,99.90
2018-03-11T00:24:11.297Z,99.90
2018-03-11T00:26:40.379Z,99.90
2018-03-11T00:29:08.678Z,99.90
2018-03-11T00:31:37.754Z,99.90
2018-03-11T00:34:06.060Z,99.90
2018-03-11T00:36:35.150Z,99.90
2018-03-11T00:39:03.460Z,99.90
2018-03-11T00:41:31.753Z,99.90
2018-03-11T00:44:00.054Z,99.90
2018-03-11T00:46:28.346Z,99.90
2018-03-11T00:48:56.665Z,99.90
2018-03-11T00:51:25.730Z,99.90
2018-03-11T00:53:54.031Z,99.90
2018-03-11T00:56:22.329Z,99.90
2018-03-11T00:58:51.389Z,99.90
2018-03-11T01:01:19.690Z,99.90
2018-03-11T01:03:48.006Z,99.90
2018-03-11T01:06:17.096Z,99.90
2018-03-11T01:08:46.162Z,99.90
2018-03-11T01:11:14.460Z,99.90
2018-03-11T01:13:42.760Z,99.90
2018-03-11T01:16:11.826Z,99.90
2018-03-11T01:18:40.127Z,99.90
2018-03-11T01:21:08.435Z,99.90
2018-03-11T01:23:36.748Z,99.90
2018-03-11T01:26:05.042Z,99.90
2018-03-11T01:28:33.336Z,99.90
2018-03-11T01:31:01.630Z,99.90
2018-03-11T01:33:29.929Z,99.90
2018-03-11T01:35:58.988Z,99.90
2018-03-11T01:38:27.295Z,99.90
2018-03-11T01:40:55.618Z,99.90
2018-03-11T01:43:23.916Z,99.90
2018-03-11T01:45:52.288Z,99.90
2018-03-11T01:48:20.604Z,99.90
2018-03-11T01:50:48.900Z,99.90
2018-03-11T01:53:17.212Z,99.90
2018-03-11T01:55:46.869Z,99.90
2018-03-11T01:58:15.160Z,99.90
2018-03-11T02:00:43.464Z,99.90
2018-03-11T02:03:12.542Z,99.90
2018-03-11T02:05:40.839Z,99.90
2018-03-11T02:08:09.992Z,99.90
2018-03-11T02:10:38.306Z,99.90
2018-03-11T02:13:06.614Z,99.90
2018-03-11T02:15:34.904Z,99.90
2018-03-11T02:18:03.970Z,99.90
2018-03-11T02:20:32.276Z,99.90
2018-03-11T02:23:00.570Z,99.90
2018-03-11T02:25:29.632Z,99.90
2018-03-11T02:27:57.936Z,99.90
2018-03-11T02:30:26.263Z,99.90
2018-03-11T02:32:54.573Z,99.90
2018-03-11T02:35:22.881Z,99.90
2018-03-11T02:37:51.189Z,99.90
2018-03-11T02:40:19.506Z,99.90
2018-03-11T02:42:48.658Z,99.90
2018-03-11T02:45:17.721Z,99.90
2018-03-11T02:47:46.029Z,99.90
2018-03-11T02:50:14.351Z,99.90
2018-03-11T02:52:42.653Z,99.90
2018-03-11T02:55:11.034Z,99.90
2018-03-11T02:57:39.345Z,99.90
2018-03-11T03:00:07.662Z,99.90
2018-03-11T03:02:36.744Z,99.90
2018-03-11T03:05:05.807Z,99.90
2018-03-11T03:07:34.102Z,99.90
2018-03-11T03:10:02.409Z,99.90
2018-03-11T03:12:31.486Z,99.90
2018-03-11T03:14:59.802Z,99.90
2018-03-11T03:17:28.863Z,99.90
2018-03-11T03:19:57.186Z,99.90
2018-03-11T03:22:25.497Z,99.90
2018-03-11T03:24:54.565Z,99.90
2018-03-11T03:27:23.641Z,99.90
2018-03-11T03:29:51.953Z,99.90
2018-03-11T03:32:20.253Z,99.90
2018-03-11T03:34:48.567Z,99.90
2018-03-11T03:37:16.865Z,99.90
2018-03-11T03:39:45.159Z,99.90
2018-03-11T03:42:14.233Z,99.90
2018-03-11T03:44:42.529Z,99.90
2018-03-11T03:47:10.848Z,99.90
2018-03-11T03:49:39.144Z,99.90
2018-03-11T03:52:08.457Z,99.90
2018-03-11T03:54:36.749Z,99.90
2018-03-11T03:57:05.041Z,99.90
2018-03-11T03:59:33.340Z,99.90
2018-03-11T04:02:01.653Z,99.90
2018-03-11T04:04:30.726Z,99.90
2018-03-11T04:06:59.025Z,99.90
2018-03-11T04:09:28.185Z,99.90
2018-03-11T04:11:56.523Z,99.90
2018-03-11T04:14:24.833Z,99.90
2018-03-11T04:16:53.142Z,99.90
2018-03-11T04:19:21.466Z,99.90
2018-03-11T04:21:49.769Z,99.90
2018-03-11T04:24:18.066Z,99.90
2018-03-11T04:26:46.374Z,99.90
2018-03-11T04:29:14.669Z,99.90
2018-03-11T04:31:42.960Z,99.90
2018-03-11T04:34:12.037Z,99.90
2018-03-11T04:36:40.359Z,99.90
2018-03-11T04:39:08.723Z,99.90
2018-03-11T04:41:37.817Z,99.90
2018-03-11T04:44:06.887Z,99.90
2018-03-11T04:46:35.192Z,99.90
2018-03-11T04:49:03.741Z,99.90
2018-03-11T04:51:32.047Z,99.90
2018-03-11T04:54:00.349Z,99.90
2018-03-11T04:56:29.403Z,99.90
2018-03-11T04:58:57.716Z,99.90
2018-03-11T05:01:26.023Z,99.90
2018-03-11T05:03:55.097Z,99.90
2018-03-11T05:06:23.395Z,99.90
2018-03-11T05:08:52.467Z,99.90
2018-03-11T05:11:20.767Z,99.90
2018-03-11T05:13:49.067Z,99.90
2018-03-11T05:16:18.117Z,99.90
2018-03-11T05:18:46.425Z,99.90
2018-03-11T05:21:14.975Z,99.90
2018-03-11T05:23:43.429Z,99.90
2018-03-11T05:26:11.711Z,99.90
2018-03-11T05:28:40.005Z,99.90
2018-03-11T05:31:08.299Z,99.90
2018-03-11T05:33:36.623Z,99.90
2018-03-11T05:36:04.954Z,99.90
2018-03-11T05:38:33.257Z,99.90
2018-03-11T05:41:01.567Z,99.90
2018-03-11T05:43:29.877Z,99.90
2018-03-11T05:45:58.939Z,99.90
2018-03-11T05:48:27.237Z,99.90
2018-03-11T05:50:55.542Z,99.90
2018-03-11T05:53:23.964Z,99.90
2018-03-11T05:55:52.980Z,99.90
2018-03-11T05:58:21.283Z,99.90
2018-03-11T06:00:49.590Z,99.90
2018-03-11T06:03:17.891Z,99.90
2018-03-11T06:05:46.243Z,99.90
2018-03-11T06:08:15.395Z,99.90
2018-03-11T06:10:43.717Z,99.90
2018-03-11T06:13:12.785Z,99.90
2018-03-11T06:15:41.079Z,99.90
2018-03-11T06:18:09.381Z,99.90
2018-03-11T06:20:38.450Z,99.90
2018-03-11T06:23:06.731Z,99.90
2018-03-11T06:25:35.047Z,99.90
2018-03-11T06:28:04.117Z,99.90
2018-03-11T06:30:32.431Z,99.90
2018-03-11T06:33:01.489Z,99.90
2018-03-11T06:35:29.795Z,99.90
2018-03-11T06:37:58.097Z,99.90
2018-03-11T06:40:27.159Z,99.90
2018-03-11T06:42:55.485Z,99.90
2018-03-11T06:45:23.845Z,99.90
2018-03-11T06:47:52.906Z,99.90
2018-03-11T06:50:21.203Z,99.90
2018-03-11T06:52:49.507Z,99.90
2018-03-11T06:55:17.819Z,99.90
2018-03-11T06:57:46.135Z,99.90
2018-03-11T07:00:14.448Z,99.90
2018-03-11T07:02:42.753Z,99.90
2018-03-11T07:05:11.068Z,99.90
2018-03-11T07:07:39.358Z,99.90
2018-03-11T07:10:07.655Z,99.90
2018-03-11T07:12:35.959Z,99.90
2018-03-11T07:15:04.964Z,99.90
2018-03-11T07:17:34.047Z,99.90
2018-03-11T07:20:02.350Z,99.90
2018-03-11T07:22:31.434Z,99.90
2018-03-11T07:24:59.744Z,99.90
2018-03-11T07:27:28.058Z,99.90
2018-03-11T07:29:56.348Z,99.90
2018-03-11T07:32:24.672Z,99.90
2018-03-11T07:34:53.728Z,99.90
2018-03-11T07:37:22.026Z,99.90
2018-03-11T07:39:50.317Z,99.90
2018-03-11T07:42:18.606Z,99.90
2018-03-11T07:44:46.914Z,99.90
2018-03-11T07:47:15.219Z,99.90
2018-03-11T07:49:43.510Z,99.90
2018-03-11T07:52:11.816Z,99.90
2018-03-11T07:54:40.146Z,99.90
2018-03-11T07:57:08.459Z,99.90
2018-03-11T07:59:36.752Z,99.90
2018-03-11T08:02:05.086Z,99.90
2018-03-11T08:04:34.172Z,99.90
2018-03-11T08:07:03.262Z,99.90
2018-03-11T08:09:31.582Z,99.90
2018-03-11T08:11:59.874Z,99.90
2018-03-11T08:14:28.171Z,99.90
2018-03-11T08:16:56.480Z,99.90
2018-03-11T08:19:24.781Z,99.90
2018-03-11T08:24:26.105Z,99.90
2018-03-11T08:26:54.429Z,99.90
2018-03-11T08:29:23.499Z,99.90
2018-03-11T08:31:51.965Z,99.90
2018-03-11T08:34:20.270Z,99.90
2018-03-11T08:36:48.600Z,99.90
2018-03-11T08:39:16.908Z,99.90
2018-03-11T08:41:45.221Z,99.90
2018-03-11T08:44:13.682Z,99.90
2018-03-11T08:46:42.011Z,99.90
2018-03-11T08:49:11.102Z,99.90
2018-03-11T08:51:40.180Z,99.90
2018-03-11T08:54:08.529Z,99.90
2018-03-11T08:56:36.850Z,99.90
2018-03-11T08:59:05.170Z,99.90
2018-03-11T09:01:33.491Z,99.90
2018-03-11T09:04:01.804Z,99.90
2018-03-11T09:06:30.128Z,99.90
2018-03-11T09:08:58.505Z,99.90
2018-03-11T09:11:26.916Z,99.90
2018-03-11T09:13:55.227Z,99.90
2018-03-11T09:16:23.547Z,99.90
2018-03-11T09:18:52.645Z,99.90
2018-03-11T09:21:21.774Z,99.90
2018-03-11T09:23:50.117Z,99.90
2018-03-11T09:26:19.223Z,99.90
2018-03-11T09:28:47.567Z,99.90
2018-03-11T09:31:15.866Z,99.90
2018-03-11T09:33:44.191Z,99.90
2018-03-11T09:36:12.503Z,99.90
2018-03-11T09:38:40.809Z,99.90
2018-03-11T09:41:09.249Z,99.90
2018-03-11T09:43:38.290Z,99.90
2018-03-11T09:46:06.612Z,99.90
2018-03-11T09:48:34.933Z,99.90
2018-03-11T09:51:03.250Z,99.90
2018-03-11T09:53:32.356Z,99.90
2018-03-11T09:56:01.490Z,99.90
2018-03-11T09:58:29.787Z,99.90
2018-03-11T10:00:58.104Z,99.90
2018-03-11T10:03:26.469Z,99.90
2018-03-11T10:05:54.786Z,99.90
2018-03-11T10:10:58.364Z,99.90
2018-03-11T10:13:26.725Z,99.90
2018-03-11T10:15:55.068Z,99.90
2018-03-11T10:18:23.390Z,99.90
2018-03-11T10:20:51.719Z,99.90
2018-03-11T10:23:20.056Z,99.90
2018-03-11T10:25:48.372Z,99.90
2018-03-11T10:28:16.697Z,99.90
2018-03-11T10:30:45.787Z,99.90
2018-03-11T10:33:14.870Z,99.90
2018-03-11T10:35:43.208Z,99.90
2018-03-11T10:38:11.562Z,99.90
2018-03-11T10:40:39.896Z,99.90
2018-03-11T10:43:08.232Z,99.90
2018-03-11T10:45:36.570Z,99.90
2018-03-11T10:48:08.366Z,99.90
2018-03-11T10:50:37.472Z,99.90
2018-03-11T10:53:05.784Z,99.90
2018-03-11T10:55:34.925Z,99.90
2018-03-11T10:58:03.228Z,99.90
2018-03-11T11:00:37.704Z,99.90
2018-03-11T11:03:22.851Z,99.90
2018-03-11T11:05:51.167Z,99.90
2018-03-11T11:08:19.503Z,99.90
2018-03-11T11:10:52.690Z,99.90
2018-03-11T11:13:21.606Z,99.90
2018-03-11T11:15:50.349Z,99.90
2018-03-11T11:18:19.872Z,99.90
2018-03-11T11:20:48.961Z,99.90
2018-03-11T11:23:17.286Z,99.90
2018-03-11T11:25:45.609Z,99.90
2018-03-11T11:28:13.943Z,99.90
2018-03-11T11:30:42.266Z,99.90
2018-03-11T11:33:10.584Z,99.90
2018-03-11T11:35:39.750Z,99.90
2018-03-11T11:38:08.068Z,99.90
2018-03-11T11:40:38.087Z,99.90
2018-03-11T11:43:06.428Z,99.90
2018-03-11T11:45:34.742Z,99.90
2018-03-11T11:48:03.052Z,99.90
2018-03-11T11:50:31.405Z,99.90
2018-03-11T11:52:59.724Z,99.90
2018-03-11T11:55:28.031Z,99.90
2018-03-11T11:57:56.363Z,99.90
2018-03-11T12:00:25.459Z,99.90
2018-03-11T12:02:54.598Z,99.90
2018-03-11T12:05:22.960Z,99.90
2018-03-11T12:07:51.258Z,99.90
2018-03-11T12:10:19.578Z,99.90
2018-03-11T12:12:47.919Z,99.90
2018-03-11T12:15:16.262Z,99.90
2018-03-11T12:17:44.586Z,99.90
2018-03-11T12:20:13.013Z,99.90
2018-03-11T12:22:41.351Z,99.90
2018-03-11T12:25:09.688Z,99.90
2018-03-11T12:27:38.032Z,99.90
2018-03-11T12:30:06.517Z,99.90
2018-03-11T12:32:34.843Z,99.90
2018-03-11T12:35:03.920Z,99.90
2018-03-11T12:37:33.020Z,99.90
2018-03-11T12:40:01.339Z,99.90
2018-03-11T12:42:30.432Z,99.90
2018-03-11T12:44:59.522Z,99.90
2018-03-11T12:47:27.857Z,99.90
2018-03-11T12:49:56.180Z,99.90
2018-03-11T12:52:24.520Z,99.90
2018-03-11T12:54:53.175Z,99.90
2018-03-11T12:57:22.311Z,99.90
2018-03-11T12:59:51.097Z,99.90
2018-03-11T13:02:19.443Z,99.00
2018-03-11T13:04:48.527Z,95.80
2018-03-11T13:07:16.845Z,95.70
2018-03-11T13:09:45.157Z,95.40
2018-03-11T13:12:13.497Z,95.40
2018-03-11T13:14:43.314Z,97.00
2018-03-11T13:17:12.411Z,95.10
2018-03-11T13:19:41.537Z,90.90
2018-03-11T13:22:09.977Z,90.70
2018-03-11T13:24:38.313Z,86.40
2018-03-11T13:27:06.630Z,85.10
2018-03-11T13:29:35.673Z,85.50
2018-03-11T13:32:21.610Z,86.40
2018-03-11T13:34:49.921Z,86.90
2018-03-11T13:37:19.013Z,85.00
2018-03-11T13:40:05.676Z,83.40
2018-03-11T13:42:33.981Z,83.30
2018-03-11T13:45:20.259Z,81.40
2018-03-11T13:47:48.586Z,81.50
2018-03-11T13:50:16.905Z,79.00
2018-03-11T13:53:03.102Z,76.60
2018-03-11T13:55:31.523Z,75.30
2018-03-11T13:58:17.301Z,75.60
2018-03-11T14:00:45.619Z,75.60
2018-03-11T14:03:13.978Z,74.70
2018-03-11T14:05:43.058Z,75.00
2018-03-11T14:08:11.432Z,75.70
2018-03-11T14:10:39.934Z,75.60
2018-03-11T14:13:08.251Z,76.40
2018-03-11T14:15:36.594Z,77.00
2018-03-11T14:18:04.973Z,76.70
2018-03-11T14:20:33.316Z,77.50
2018-03-11T14:23:01.629Z,77.20
2018-03-11T14:25:29.951Z,77.60
2018-03-11T14:27:58.348Z,77.10
2018-03-11T14:30:26.825Z,77.80
2018-03-11T14:32:55.177Z,78.60
2018-03-11T14:35:23.488Z,78.30
2018-03-11T14:37:52.449Z,78.70
2018-03-11T14:40:20.777Z,78.10
2018-03-11T14:42:49.101Z,77.70
2018-03-11T14:45:17.444Z,78.10
2018-03-11T14:47:45.764Z,78.80
2018-03-11T14:50:14.107Z,80.10
2018-03-11T14:52:42.510Z,82.00
2018-03-11T14:55:12.599Z,81.00
2018-03-11T14:57:41.831Z,67.90
2018-03-11T15:00:10.182Z,67.60
2018-03-11T15:02:39.307Z,60.00
2018-03-11T15:05:07.646Z,59.70
2018-03-11T15:07:35.971Z,56.30
2018-03-11T15:10:04.332Z,54.70
2018-03-11T15:12:33.456Z,54.30
2018-03-11T15:15:01.786Z,54.10
2018-03-11T15:17:30.117Z,54.50
2018-03-11T15:19:58.443Z,55.30
2018-03-11T15:22:26.758Z,56.30
2018-03-11T15:24:55.192Z,56.20
2018-03-11T15:27:23.489Z,55.90
2018-03-11T15:29:51.815Z,56.20
2018-03-11T15:32:20.893Z,58.00
2018-03-11T15:34:49.215Z,58.00
2018-03-11T15:37:17.573Z,59.40
2018-03-11T15:39:45.920Z,59.70
2018-03-11T15:42:14.257Z,61.90
2018-03-11T15:44:42.696Z,62.80
2018-03-11T15:47:11.070Z,64.20
2018-03-11T15:49:39.448Z,65.00
2018-03-11T15:52:07.734Z,65.70
2018-03-11T15:54:36.111Z,67.50
2018-03-11T15:57:04.451Z,68.30
2018-03-11T15:59:32.883Z,68.80
2018-03-11T16:02:01.222Z,70.20
2018-03-11T16:04:29.518Z,70.50
2018-03-11T16:06:57.931Z,70.50
2018-03-11T16:09:26.263Z,70.50
2018-03-11T16:11:54.631Z,72.00
2018-03-11T16:14:22.987Z,72.30
2018-03-11T16:16:52.100Z,69.30
2018-03-11T16:19:20.448Z,69.10
2018-03-11T16:21:48.820Z,65.20
2018-03-11T16:24:28.280Z,63.40
2018-03-11T16:26:46.252Z,60.60
2018-03-11T16:29:14.594Z,60.50
2018-03-11T16:31:43.038Z,60.10
2018-03-11T16:34:11.366Z,58.50
2018-03-11T16:36:39.692Z,57.50
2018-03-11T16:39:08.810Z,57.80
2018-03-11T16:41:38.061Z,57.70
2018-03-11T16:44:06.395Z,58.60
2018-03-11T16:46:34.754Z,60.00
2018-03-11T16:49:03.093Z,61.60
2018-03-11T16:51:31.443Z,63.20
2018-03-11T16:53:59.776Z,66.70
2018-03-11T16:56:28.900Z,69.50
2018-03-11T16:58:57.238Z,69.50
2018-03-11T17:01:25.586Z,71.10
2018-03-11T17:03:55.124Z,75.60
2018-03-11T17:06:23.498Z,75.50
2018-03-11T17:08:51.829Z,78.30
2018-03-11T17:11:20.148Z,80.30
2018-03-11T17:13:49.247Z,84.40
2018-03-11T17:16:18.402Z,85.90
2018-03-11T17:18:46.734Z,85.90
2018-03-11T17:21:15.065Z,88.10
2018-03-11T17:23:43.392Z,90.00
2018-03-11T17:26:13.375Z,91.30
2018-03-11T17:28:41.720Z,91.40
2018-03-11T17:31:10.081Z,92.60
2018-03-11T17:33:38.405Z,94.00
2018-03-11T17:36:06.704Z,94.80
2018-03-11T17:38:35.064Z,95.40
2018-03-11T17:41:03.406Z,96.00
2018-03-11T17:43:32.530Z,96.90
2018-03-11T17:46:00.880Z,96.90
2018-03-11T17:48:29.998Z,98.50
2018-03-11T17:50:59.100Z,99.30
2018-03-11T17:53:27.423Z,99.30
2018-03-11T17:55:55.757Z,99.70
2018-03-11T17:58:24.839Z,99.90
2018-03-11T18:00:54.460Z,99.90
2018-03-11T18:03:23.840Z,99.90
2018-03-11T18:05:54.726Z,99.90
2018-03-11T18:08:23.200Z,99.90
2018-03-11T18:10:51.625Z,99.90
2018-03-11T18:13:20.128Z,99.90
2018-03-11T18:15:48.469Z,99.90
2018-03-11T18:18:17.983Z,99.90
2018-03-11T18:20:46.459Z,99.90
2018-03-11T18:23:15.744Z,99.90
2018-03-11T18:25:45.021Z,99.90
2018-03-11T18:28:13.344Z,99.90
2018-03-11T18:30:41.931Z,99.90
2018-03-11T18:33:10.452Z,99.90
2018-03-11T18:35:39.606Z,99.90
2018-03-11T18:38:08.860Z,99.90
2018-03-11T18:40:37.190Z,99.90
2018-03-11T18:43:06.392Z,99.90
2018-03-11T18:45:35.762Z,99.90
2018-03-11T18:48:04.191Z,99.90
2018-03-11T18:50:33.287Z,99.90
2018-03-11T18:53:01.644Z,99.90
2018-03-11T18:55:30.188Z,99.90
2018-03-11T18:57:58.794Z,99.90
2018-03-11T19:00:27.398Z,99.90
2018-03-11T19:02:55.729Z,99.90
2018-03-11T19:05:24.265Z,99.90
2018-03-11T19:07:52.599Z,99.90
2018-03-11T19:10:21.194Z,99.90
2018-03-11T19:12:49.788Z,99.90
2018-03-11T19:15:18.152Z,99.90
2018-03-11T19:17:47.573Z,99.90
2018-03-11T19:20:15.927Z,99.90
2018-03-11T19:22:45.362Z,99.90
2018-03-11T19:25:19.149Z,99.90
2018-03-11T19:27:47.492Z,99.90
2018-03-11T19:30:15.810Z,99.90
2018-03-11T19:32:44.963Z,99.90
2018-03-11T19:35:13.298Z,99.90
2018-03-11T19:37:42.371Z,99.90
2018-03-11T19:40:10.721Z,99.90
2018-03-11T19:42:39.028Z,99.90
2018-03-11T19:45:07.338Z,99.90
2018-03-11T19:47:36.415Z,99.90
2018-03-11T19:50:04.797Z,99.90
2018-03-11T19:52:33.113Z,99.90
2018-03-11T19:55:02.200Z,99.90
2018-03-11T19:57:31.344Z,99.90
2018-03-11T19:59:59.691Z,99.90
2018-03-11T20:02:28.780Z,99.90
2018-03-11T20:04:57.094Z,99.90
2018-03-11T20:07:25.399Z,99.90
2018-03-11T20:09:53.705Z,99.90
2018-03-11T20:12:22.014Z,99.90
2018-03-11T20:14:51.101Z,99.90
2018-03-11T20:17:19.425Z,99.90
2018-03-11T20:19:47.737Z,99.90
2018-03-11T20:22:16.069Z,99.90
2018-03-11T20:24:45.135Z,99.90
2018-03-11T20:27:13.617Z,99.90
2018-03-11T20:29:41.917Z,99.90
2018-03-11T20:32:10.247Z,99.90
2018-03-11T20:34:38.538Z,99.90
2018-03-11T20:37:06.869Z,99.90
2018-03-11T20:39:35.947Z,99.90
2018-03-11T20:42:04.254Z,99.90
2018-03-11T20:44:33.334Z,99.90
2018-03-11T20:47:01.714Z,99.90
2018-03-11T20:49:30.035Z,99.90
2018-03-11T20:51:58.341Z,99.90
2018-03-11T20:54:26.759Z,99.90
2018-03-11T20:56:55.081Z,99.90
2018-03-11T20:59:23.387Z,99.90
2018-03-11T21:01:51.774Z,99.90
2018-03-11T21:04:20.079Z,99.90
2018-03-11T21:06:48.404Z,99.90
2018-03-11T21:09:17.476Z,99.90
2018-03-11T21:11:45.778Z,99.90
2018-03-11T21:14:15.221Z,99.90
2018-03-11T21:16:43.525Z,99.90
2018-03-11T21:19:11.837Z,99.90
2018-03-11T21:21:40.303Z,99.90
2018-03-11T21:24:08.620Z,99.90
2018-03-11T21:26:37.697Z,99.90
2018-03-11T21:29:06.010Z,99.90
2018-03-11T21:31:35.107Z,99.90
2018-03-11T21:34:04.190Z,99.90
2018-03-11T21:36:32.508Z,99.90
2018-03-11T21:39:00.821Z,99.90
2018-03-11T21:41:29.897Z,99.90
2018-03-11T21:43:58.245Z,99.90
2018-03-11T21:46:27.330Z,99.90
2018-03-11T21:48:55.645Z,99.90
2018-03-11T21:51:23.968Z,99.90
2018-03-11T21:53:52.319Z,99.90
2018-03-11T21:56:20.631Z,99.90
2018-03-11T21:58:48.947Z,99.90
2018-03-11T22:01:17.269Z,99.90
2018-03-11T22:03:45.654Z,99.90
2018-03-11T22:06:14.015Z,99.90
2018-03-11T22:08:43.092Z,99.90
2018-03-11T22:11:11.395Z,99.90
2018-03-11T22:13:40.717Z,99.90
2018-03-11T22:16:09.021Z,99.90
2018-03-11T22:18:37.337Z,99.90
2018-03-11T22:21:05.647Z,99.90
2018-03-11T22:23:34.740Z,99.90
2018-03-11T22:26:03.059Z,99.90
2018-03-11T22:28:31.371Z,99.90
2018-03-11T22:30:59.693Z,99.90
2018-03-11T22:33:28.781Z,99.90
2018-03-11T22:35:57.853Z,99.90
2018-03-11T22:38:26.157Z,99.90
2018-03-11T22:40:54.485Z,99.90
2018-03-11T22:43:22.797Z,99.90
2018-03-11T22:45:51.101Z,99.90
2018-03-11T22:48:20.195Z,99.90
2018-03-11T22:50:48.499Z,99.90
2018-03-11T22:53:17.591Z,99.90
2018-03-11T22:55:46.669Z,99.90
2018-03-11T22:58:14.972Z,99.90
2018-03-11T23:00:44.060Z,99.90
2018-03-11T23:03:12.375Z,99.90
2018-03-11T23:05:40.708Z,99.90
2018-03-11T23:08:09.045Z,99.90
2018-03-11T23:10:37.398Z,99.90
2018-03-11T23:13:06.465Z,99.90
2018-03-11T23:15:34.807Z,99.90
2018-03-11T23:18:03.125Z,99.90
2018-03-11T23:20:31.442Z,99.90
2018-03-11T23:23:00.515Z,99.90
2018-03-11T23:25:28.875Z,99.90
2018-03-11T23:27:57.200Z,99.90
2018-03-11T23:30:25.516Z,99.90
2018-03-11T23:32:53.813Z,99.90
2018-03-11T23:35:22.124Z,99.90
2018-03-11T23:37:50.445Z,99.90
2018-03-11T23:40:19.528Z,99.90
2018-03-11T23:42:47.865Z,99.90
2018-03-11T23:45:16.176Z,99.90
2018-03-11T23:47:44.501Z,99.90
2018-03-11T23:50:12.816Z,99.90
2018-03-11T23:52:41.133Z,99.90
2018-03-11T23:55:09.465Z,99.90
2018-03-11T23:57:37.787Z,99.90
